sensor_id;sensor_type;location;lat;lon;timestamp;temperature;humidity
17425;DHT22;8830;50.978;5.058;2022-11-04T00:00:14;10.30;99.90
17425;DHT22;8830;50.978;5.058;2022-11-04T00:03:01;11.80;99.90
17425;DHT22;8830;50.978;5.058;2022-11-04T00:05:38;10.20;99.90
17425;DHT22;8830;50.978;5.058;2022-11-04T00:08:14;10.10;99.90
17425;DHT22;8830;50.978;5.058;2022-11-04T00:11:03;10.10;99.90
17425;DHT22;8830;50.978;5.058;2022-11-04T00:13:51;10.00;99.90
17425;DHT22;8830;50.978;5.058;2022-11-04T00:16:45;10.00;99.90
17425;DHT22;8830;50.978;5.058;2022-11-04T00:19:40;10.00;99.90
17425;DHT22;8830;50.978;5.058;2022-11-04T00:22:36;10.00;99.90
17425;DHT22;8830;50.978;5.058;2022-11-04T00:28:25;9.90;99.90
17425;DHT22;8830;50.978;5.058;2022-11-04T00:31:15;9.90;99.90
17425;DHT22;8830;50.978;5.058;2022-11-04T00:34:05;9.80;99.90
17425;DHT22;8830;50.978;5.058;2022-11-04T00:36:39;9.80;99.90
17425;DHT22;8830;50.978;5.058;2022-11-04T00:39:11;9.70;99.90
17425;DHT22;8830;50.978;5.058;2022-11-04T00:41:53;8.90;99.90
17425;DHT22;8830;50.978;5.058;2022-11-04T00:44:32;9.60;99.90
17425;DHT22;8830;50.978;5.058;2022-11-04T00:47:16;10.60;99.90
17425;DHT22;8830;50.978;5.058;2022-11-04T00:49:50;9.60;99.90
17425;DHT22;8830;50.978;5.058;2022-11-04T00:52:24;9.60;99.90
17425;DHT22;8830;50.978;5.058;2022-11-04T00:55:08;9.50;99.90
17425;DHT22;8830;50.978;5.058;2022-11-04T00:57:47;8.30;99.90
17425;DHT22;8830;50.978;5.058;2022-11-04T01:00:33;9.50;99.90
17425;DHT22;8830;50.978;5.058;2022-11-04T01:03:16;9.60;99.90
17425;DHT22;8830;50.978;5.058;2022-11-04T01:06:02;9.50;99.90
17425;DHT22;8830;50.978;5.058;2022-11-04T01:09:03;9.50;99.90
17425;DHT22;8830;50.978;5.058;2022-11-04T01:11:47;9.50;99.90
17425;DHT22;8830;50.978;5.058;2022-11-04T01:14:18;9.50;99.90
17425;DHT22;8830;50.978;5.058;2022-11-04T01:17:21;9.50;99.90
17425;DHT22;8830;50.978;5.058;2022-11-04T01:19:54;9.50;99.90
17425;DHT22;8830;50.978;5.058;2022-11-04T01:22:27;9.40;99.90
17425;DHT22;8830;50.978;5.058;2022-11-04T01:25:08;9.40;99.90
17425;DHT22;8830;50.978;5.058;2022-11-04T01:27:57;9.40;99.90
17425;DHT22;8830;50.978;5.058;2022-11-04T01:30:37;9.40;99.90
17425;DHT22;8830;50.978;5.058;2022-11-04T01:33:24;9.70;99.90
17425;DHT22;8830;50.978;5.058;2022-11-04T01:36:05;9.40;99.90
17425;DHT22;8830;50.978;5.058;2022-11-04T01:38:56;9.30;99.90
17425;DHT22;8830;50.978;5.058;2022-11-04T01:41:36;9.30;99.90
17425;DHT22;8830;50.978;5.058;2022-11-04T01:44:45;9.30;99.90
17425;DHT22;8830;50.978;5.058;2022-11-04T01:47:49;9.40;99.90
17425;DHT22;8830;50.978;5.058;2022-11-04T01:50:22;9.50;99.90
17425;DHT22;8830;50.978;5.058;2022-11-04T01:53:01;9.50;99.90
17425;DHT22;8830;50.978;5.058;2022-11-04T01:55:44;9.60;99.90
17425;DHT22;8830;50.978;5.058;2022-11-04T01:58:30;9.70;99.90
17425;DHT22;8830;50.978;5.058;2022-11-04T02:01:07;9.80;99.90
17425;DHT22;8830;50.978;5.058;2022-11-04T02:03:45;9.80;99.90
17425;DHT22;8830;50.978;5.058;2022-11-04T02:06:35;9.80;99.90
17425;DHT22;8830;50.978;5.058;2022-11-04T02:09:17;9.80;99.90
17425;DHT22;8830;50.978;5.058;2022-11-04T02:11:59;9.90;99.90
17425;DHT22;8830;50.978;5.058;2022-11-04T02:14:47;9.90;99.90
17425;DHT22;8830;50.978;5.058;2022-11-04T02:17:40;9.90;99.90
17425;DHT22;8830;50.978;5.058;2022-11-04T02:27:28;9.90;99.90
17425;DHT22;8830;50.978;5.058;2022-11-04T02:30:28;9.80;99.90
17425;DHT22;8830;50.978;5.058;2022-11-04T02:33:31;9.50;99.90
17425;DHT22;8830;50.978;5.058;2022-11-04T02:36:08;9.70;99.90
17425;DHT22;8830;50.978;5.058;2022-11-04T02:38:49;9.70;99.90
17425;DHT22;8830;50.978;5.058;2022-11-04T02:41:27;9.70;99.90
17425;DHT22;8830;50.978;5.058;2022-11-04T02:44:15;9.60;99.90
17425;DHT22;8830;50.978;5.058;2022-11-04T02:47:05;9.10;99.90
17425;DHT22;8830;50.978;5.058;2022-11-04T02:49:55;9.40;99.90
17425;DHT22;8830;50.978;5.058;2022-11-04T02:52:40;9.40;99.90
17425;DHT22;8830;50.978;5.058;2022-11-04T02:55:28;9.30;99.90
17425;DHT22;8830;50.978;5.058;2022-11-04T02:58:06;9.30;99.90
17425;DHT22;8830;50.978;5.058;2022-11-04T03:00:39;9.20;99.90
17425;DHT22;8830;50.978;5.058;2022-11-04T03:03:26;9.10;99.90
17425;DHT22;8830;50.978;5.058;2022-11-04T03:05:57;9.10;99.90
17425;DHT22;8830;50.978;5.058;2022-11-04T03:08:34;9.10;99.90
17425;DHT22;8830;50.978;5.058;2022-11-04T03:11:24;9.00;99.90
17425;DHT22;8830;50.978;5.058;2022-11-04T03:14:03;9.00;99.90
17425;DHT22;8830;50.978;5.058;2022-11-04T03:16:56;8.90;99.90
17425;DHT22;8830;50.978;5.058;2022-11-04T03:19:57;9.00;99.90
17425;DHT22;8830;50.978;5.058;2022-11-04T03:22:35;8.90;99.90
17425;DHT22;8830;50.978;5.058;2022-11-04T03:25:10;8.90;99.90
17425;DHT22;8830;50.978;5.058;2022-11-04T03:28:01;8.80;99.90
17425;DHT22;8830;50.978;5.058;2022-11-04T03:30:38;8.90;99.90
17425;DHT22;8830;50.978;5.058;2022-11-04T03:33:20;9.00;99.90
17425;DHT22;8830;50.978;5.058;2022-11-04T03:36:18;9.00;99.90
17425;DHT22;8830;50.978;5.058;2022-11-04T03:38:51;9.10;99.90
17425;DHT22;8830;50.978;5.058;2022-11-04T03:41:40;9.10;99.90
17425;DHT22;8830;50.978;5.058;2022-11-04T03:44:23;9.10;99.90
17425;DHT22;8830;50.978;5.058;2022-11-04T03:47:03;9.20;99.90
17425;DHT22;8830;50.978;5.058;2022-11-04T03:49:58;9.20;99.90
17425;DHT22;8830;50.978;5.058;2022-11-04T03:52:54;9.30;99.90
17425;DHT22;8830;50.978;5.058;2022-11-04T03:55:44;9.40;99.90
17425;DHT22;8830;50.978;5.058;2022-11-04T03:58:42;9.40;99.90
17425;DHT22;8830;50.978;5.058;2022-11-04T04:01:43;9.30;99.90
17425;DHT22;8830;50.978;5.058;2022-11-04T04:04:32;9.30;99.90
17425;DHT22;8830;50.978;5.058;2022-11-04T04:07:04;9.40;99.90
17425;DHT22;8830;50.978;5.058;2022-11-04T04:09:44;9.40;99.90
17425;DHT22;8830;50.978;5.058;2022-11-04T04:12:19;9.40;99.90
17425;DHT22;8830;50.978;5.058;2022-11-04T04:15:20;9.40;99.90
17425;DHT22;8830;50.978;5.058;2022-11-04T04:17:57;10.40;99.90
17425;DHT22;8830;50.978;5.058;2022-11-04T04:20:37;9.50;99.90
17425;DHT22;8830;50.978;5.058;2022-11-04T04:23:22;9.50;99.90
17425;DHT22;8830;50.978;5.058;2022-11-04T04:26:21;9.60;99.90
17425;DHT22;8830;50.978;5.058;2022-11-04T04:29:08;9.60;99.90
17425;DHT22;8830;50.978;5.058;2022-11-04T04:31:43;9.60;99.90
17425;DHT22;8830;50.978;5.058;2022-11-04T04:34:28;9.70;99.90
17425;DHT22;8830;50.978;5.058;2022-11-04T04:37:01;9.60;99.90
17425;DHT22;8830;50.978;5.058;2022-11-04T04:39:38;9.60;99.90
17425;DHT22;8830;50.978;5.058;2022-11-04T04:42:43;9.70;99.90
17425;DHT22;8830;50.978;5.058;2022-11-04T04:45:37;9.70;99.90
17425;DHT22;8830;50.978;5.058;2022-11-04T04:48:08;9.70;99.90
17425;DHT22;8830;50.978;5.058;2022-11-04T04:50:46;9.70;99.90
17425;DHT22;8830;50.978;5.058;2022-11-04T04:53:24;9.80;99.90
17425;DHT22;8830;50.978;5.058;2022-11-04T04:55:55;9.80;99.90
17425;DHT22;8830;50.978;5.058;2022-11-04T04:58:30;9.80;99.90
17425;DHT22;8830;50.978;5.058;2022-11-04T05:01:02;9.80;99.90
17425;DHT22;8830;50.978;5.058;2022-11-04T05:03:38;9.70;99.90
17425;DHT22;8830;50.978;5.058;2022-11-04T05:06:17;9.70;99.90
17425;DHT22;8830;50.978;5.058;2022-11-04T05:08:49;9.80;99.90
17425;DHT22;8830;50.978;5.058;2022-11-04T05:14:41;9.80;99.90
17425;DHT22;8830;50.978;5.058;2022-11-04T05:17:21;9.90;99.90
17425;DHT22;8830;50.978;5.058;2022-11-04T05:19:54;9.90;99.90
17425;DHT22;8830;50.978;5.058;2022-11-04T05:22:24;10.00;99.90
17425;DHT22;8830;50.978;5.058;2022-11-04T05:25:08;9.90;99.90
17425;DHT22;8830;50.978;5.058;2022-11-04T05:27:38;9.90;99.90
17425;DHT22;8830;50.978;5.058;2022-11-04T05:30:25;9.90;99.90
17425;DHT22;8830;50.978;5.058;2022-11-04T05:33:07;9.90;99.90
17425;DHT22;8830;50.978;5.058;2022-11-04T05:35:51;10.00;99.90
17425;DHT22;8830;50.978;5.058;2022-11-04T05:38:23;9.90;99.90
17425;DHT22;8830;50.978;5.058;2022-11-04T05:40:51;9.90;99.90
17425;DHT22;8830;50.978;5.058;2022-11-04T05:43:20;9.90;99.90
17425;DHT22;8830;50.978;5.058;2022-11-04T05:46:15;9.90;99.90
17425;DHT22;8830;50.978;5.058;2022-11-04T05:48:46;9.80;99.90
17425;DHT22;8830;50.978;5.058;2022-11-04T05:51:22;9.80;99.90
17425;DHT22;8830;50.978;5.058;2022-11-04T05:53:53;9.80;99.90
17425;DHT22;8830;50.978;5.058;2022-11-04T05:56:24;9.80;99.90
17425;DHT22;8830;50.978;5.058;2022-11-04T05:58:55;9.80;99.90
17425;DHT22;8830;50.978;5.058;2022-11-04T06:01:31;9.80;99.90
17425;DHT22;8830;50.978;5.058;2022-11-04T06:04:05;9.80;99.90
17425;DHT22;8830;50.978;5.058;2022-11-04T06:06:35;9.80;99.90
17425;DHT22;8830;50.978;5.058;2022-11-04T06:09:06;9.80;99.90
17425;DHT22;8830;50.978;5.058;2022-11-04T06:11:36;9.80;99.90
17425;DHT22;8830;50.978;5.058;2022-11-04T06:14:05;9.80;99.90
17425;DHT22;8830;50.978;5.058;2022-11-04T06:16:40;9.80;99.90
17425;DHT22;8830;50.978;5.058;2022-11-04T06:19:13;9.80;99.90
17425;DHT22;8830;50.978;5.058;2022-11-04T06:21:43;9.80;99.90
17425;DHT22;8830;50.978;5.058;2022-11-04T06:24:12;9.80;99.90
17425;DHT22;8830;50.978;5.058;2022-11-04T06:26:41;9.90;99.90
17425;DHT22;8830;50.978;5.058;2022-11-04T06:29:09;10.00;99.90
17425;DHT22;8830;50.978;5.058;2022-11-04T06:31:39;9.90;99.90
17425;DHT22;8830;50.978;5.058;2022-11-04T06:34:14;9.90;99.90
17425;DHT22;8830;50.978;5.058;2022-11-04T06:36:41;9.90;99.90
17425;DHT22;8830;50.978;5.058;2022-11-04T06:39:16;9.90;99.90
17425;DHT22;8830;50.978;5.058;2022-11-04T06:41:54;10.00;99.90
17425;DHT22;8830;50.978;5.058;2022-11-04T06:44:33;10.10;99.90
17425;DHT22;8830;50.978;5.058;2022-11-04T06:50:33;10.10;99.90
17425;DHT22;8830;50.978;5.058;2022-11-04T06:53:17;10.20;99.90
17425;DHT22;8830;50.978;5.058;2022-11-04T06:56:03;10.20;99.90
17425;DHT22;8830;50.978;5.058;2022-11-04T07:02:22;10.20;99.90
17425;DHT22;8830;50.978;5.058;2022-11-04T07:09:09;10.20;99.90
17425;DHT22;8830;50.978;5.058;2022-11-04T07:12:45;10.80;99.90
17425;DHT22;8830;50.978;5.058;2022-11-04T07:15:14;10.30;99.90
17425;DHT22;8830;50.978;5.058;2022-11-04T07:18:06;10.30;99.90
17425;DHT22;8830;50.978;5.058;2022-11-04T07:21:01;10.40;99.90
17425;DHT22;8830;50.978;5.058;2022-11-04T07:23:36;10.50;99.90
17425;DHT22;8830;50.978;5.058;2022-11-04T07:26:21;10.50;99.90
17425;DHT22;8830;50.978;5.058;2022-11-04T07:28:59;10.50;99.90
17425;DHT22;8830;50.978;5.058;2022-11-04T07:31:34;10.60;99.90
17425;DHT22;8830;50.978;5.058;2022-11-04T07:34:07;10.80;99.90
17425;DHT22;8830;50.978;5.058;2022-11-04T07:36:44;10.80;99.90
17425;DHT22;8830;50.978;5.058;2022-11-04T07:39:13;11.00;99.90
17425;DHT22;8830;50.978;5.058;2022-11-04T07:41:47;11.20;99.90
17425;DHT22;8830;50.978;5.058;2022-11-04T07:44:36;11.20;99.90
17425;DHT22;8830;50.978;5.058;2022-11-04T07:49:41;11.20;99.90
17425;DHT22;8830;50.978;5.058;2022-11-04T07:52:13;11.30;99.90
17425;DHT22;8830;50.978;5.058;2022-11-04T07:57:15;11.40;99.90
17425;DHT22;8830;50.978;5.058;2022-11-04T07:59:45;11.50;99.90
17425;DHT22;8830;50.978;5.058;2022-11-04T08:02:15;11.70;99.90
17425;DHT22;8830;50.978;5.058;2022-11-04T08:31:00;12.10;99.90
17425;DHT22;8830;50.978;5.058;2022-11-04T08:33:31;12.10;99.90
17425;DHT22;8830;50.978;5.058;2022-11-04T08:41:09;12.10;99.90
17425;DHT22;8830;50.978;5.058;2022-11-04T09:08:30;11.40;99.90
17425;DHT22;8830;50.978;5.058;2022-11-04T09:16:46;11.60;99.90
17425;DHT22;8830;50.978;5.058;2022-11-04T09:30:05;11.60;99.90
17425;DHT22;8830;50.978;5.058;2022-11-04T09:36:21;11.60;99.90
17425;DHT22;8830;50.978;5.058;2022-11-04T11:32:45;13.30;99.90
17425;DHT22;8830;50.978;5.058;2022-11-04T12:21:32;13.40;99.90
17425;DHT22;8830;50.978;5.058;2022-11-04T12:24:21;13.40;99.90
17425;DHT22;8830;50.978;5.058;2022-11-04T12:31:23;13.40;99.90
17425;DHT22;8830;50.978;5.058;2022-11-04T12:34:49;13.50;99.90
17425;DHT22;8830;50.978;5.058;2022-11-04T12:37:46;13.50;99.90
17425;DHT22;8830;50.978;5.058;2022-11-04T12:40:30;13.60;99.90
17425;DHT22;8830;50.978;5.058;2022-11-04T12:43:20;13.50;99.90
17425;DHT22;8830;50.978;5.058;2022-11-04T12:46:41;13.50;99.90
17425;DHT22;8830;50.978;5.058;2022-11-04T12:56:16;13.80;99.90
17425;DHT22;8830;50.978;5.058;2022-11-04T12:59:35;13.90;99.90
17425;DHT22;8830;50.978;5.058;2022-11-04T13:02:15;13.90;99.90
17425;DHT22;8830;50.978;5.058;2022-11-04T13:05:14;14.00;99.90
17425;DHT22;8830;50.978;5.058;2022-11-04T13:08:30;14.20;99.90
17425;DHT22;8830;50.978;5.058;2022-11-04T13:18:40;14.30;99.90
17425;DHT22;8830;50.978;5.058;2022-11-04T13:21:40;14.20;99.90
17425;DHT22;8830;50.978;5.058;2022-11-04T13:24:33;13.60;99.90
17425;DHT22;8830;50.978;5.058;2022-11-04T13:27:20;13.50;99.90
17425;DHT22;8830;50.978;5.058;2022-11-04T13:30:46;14.00;99.90
17425;DHT22;8830;50.978;5.058;2022-11-04T13:37:37;12.90;99.90
17425;DHT22;8830;50.978;5.058;2022-11-04T13:40:21;13.80;99.90
17425;DHT22;8830;50.978;5.058;2022-11-04T13:43:19;13.50;99.90
17425;DHT22;8830;50.978;5.058;2022-11-04T13:46:48;10.40;99.90
17425;DHT22;8830;50.978;5.058;2022-11-04T14:20:08;13.70;99.90
17425;DHT22;8830;50.978;5.058;2022-11-04T14:22:48;13.70;99.90
17425;DHT22;8830;50.978;5.058;2022-11-04T14:25:23;13.70;99.90
17425;DHT22;8830;50.978;5.058;2022-11-04T14:27:52;13.60;99.90
17425;DHT22;8830;50.978;5.058;2022-11-04T14:30:35;13.60;99.90
17425;DHT22;8830;50.978;5.058;2022-11-04T14:33:06;13.60;99.90
17425;DHT22;8830;50.978;5.058;2022-11-04T14:35:35;13.50;99.90
17425;DHT22;8830;50.978;5.058;2022-11-04T14:38:13;13.60;99.90
17425;DHT22;8830;50.978;5.058;2022-11-04T14:40:48;13.40;99.90
17425;DHT22;8830;50.978;5.058;2022-11-04T14:43:29;13.40;99.90
17425;DHT22;8830;50.978;5.058;2022-11-04T14:45:59;13.40;99.90
17425;DHT22;8830;50.978;5.058;2022-11-04T14:48:27;13.40;99.90
17425;DHT22;8830;50.978;5.058;2022-11-04T14:50:59;13.40;99.90
17425;DHT22;8830;50.978;5.058;2022-11-04T14:53:32;13.40;99.90
17425;DHT22;8830;50.978;5.058;2022-11-04T14:56:09;13.50;99.90
17425;DHT22;8830;50.978;5.058;2022-11-04T14:58:53;13.50;99.90
17425;DHT22;8830;50.978;5.058;2022-11-04T15:01:23;13.30;99.90
17425;DHT22;8830;50.978;5.058;2022-11-04T15:03:52;13.30;99.90
17425;DHT22;8830;50.978;5.058;2022-11-04T15:06:27;13.20;99.90
17425;DHT22;8830;50.978;5.058;2022-11-04T15:08:55;13.00;99.90
17425;DHT22;8830;50.978;5.058;2022-11-04T15:11:25;13.00;99.90
17425;DHT22;8830;50.978;5.058;2022-11-04T15:14:24;12.90;99.90
17425;DHT22;8830;50.978;5.058;2022-11-04T15:16:54;12.60;99.90
17425;DHT22;8830;50.978;5.058;2022-11-04T15:19:26;12.50;99.90
17425;DHT22;8830;50.978;5.058;2022-11-04T15:21:57;12.40;99.90
17425;DHT22;8830;50.978;5.058;2022-11-04T15:24:25;12.40;99.90
17425;DHT22;8830;50.978;5.058;2022-11-04T15:26:56;12.30;99.90
17425;DHT22;8830;50.978;5.058;2022-11-04T15:29:24;12.40;99.90
17425;DHT22;8830;50.978;5.058;2022-11-04T15:31:53;12.20;99.90
17425;DHT22;8830;50.978;5.058;2022-11-04T15:34:22;12.20;99.90
17425;DHT22;8830;50.978;5.058;2022-11-04T15:36:52;12.20;99.90
17425;DHT22;8830;50.978;5.058;2022-11-04T15:39:24;12.20;99.90
17425;DHT22;8830;50.978;5.058;2022-11-04T15:41:56;12.20;99.90
17425;DHT22;8830;50.978;5.058;2022-11-04T15:44:45;12.10;99.90
17425;DHT22;8830;50.978;5.058;2022-11-04T15:47:31;12.10;99.90
17425;DHT22;8830;50.978;5.058;2022-11-04T15:50:01;12.10;99.90
17425;DHT22;8830;50.978;5.058;2022-11-04T15:52:29;12.10;99.90
17425;DHT22;8830;50.978;5.058;2022-11-04T15:54:59;12.00;99.90
17425;DHT22;8830;50.978;5.058;2022-11-04T15:57:31;12.00;99.90
17425;DHT22;8830;50.978;5.058;2022-11-04T16:00:03;12.00;99.90
17425;DHT22;8830;50.978;5.058;2022-11-04T16:02:34;12.00;99.90
17425;DHT22;8830;50.978;5.058;2022-11-04T16:05:19;11.90;99.90
17425;DHT22;8830;50.978;5.058;2022-11-04T16:07:50;12.00;99.90
17425;DHT22;8830;50.978;5.058;2022-11-04T16:10:29;11.80;99.90
17425;DHT22;8830;50.978;5.058;2022-11-04T16:12:58;11.70;99.90
17425;DHT22;8830;50.978;5.058;2022-11-04T16:15:33;11.60;99.90
17425;DHT22;8830;50.978;5.058;2022-11-04T16:18:01;11.60;99.90
17425;DHT22;8830;50.978;5.058;2022-11-04T16:20:30;11.50;99.90
17425;DHT22;8830;50.978;5.058;2022-11-04T16:22:59;11.40;99.90
17425;DHT22;8830;50.978;5.058;2022-11-04T16:25:32;11.30;99.90
17425;DHT22;8830;50.978;5.058;2022-11-04T16:28:01;11.40;99.90
17425;DHT22;8830;50.978;5.058;2022-11-04T16:30:29;11.30;99.90
17425;DHT22;8830;50.978;5.058;2022-11-04T16:33:07;11.10;99.90
17425;DHT22;8830;50.978;5.058;2022-11-04T16:35:36;11.10;99.90
17425;DHT22;8830;50.978;5.058;2022-11-04T16:38:07;11.00;99.90
17425;DHT22;8830;50.978;5.058;2022-11-04T16:40:35;11.00;99.90
17425;DHT22;8830;50.978;5.058;2022-11-04T16:43:03;10.90;99.90
17425;DHT22;8830;50.978;5.058;2022-11-04T16:45:32;10.90;99.90
17425;DHT22;8830;50.978;5.058;2022-11-04T16:48:00;10.80;99.90
17425;DHT22;8830;50.978;5.058;2022-11-04T16:50:32;10.80;99.90
17425;DHT22;8830;50.978;5.058;2022-11-04T16:53:01;10.80;99.90
17425;DHT22;8830;50.978;5.058;2022-11-04T16:55:28;10.70;99.90
17425;DHT22;8830;50.978;5.058;2022-11-04T16:58:00;10.70;99.90
17425;DHT22;8830;50.978;5.058;2022-11-04T17:00:29;10.80;99.90
17425;DHT22;8830;50.978;5.058;2022-11-04T17:02:57;10.70;99.90
17425;DHT22;8830;50.978;5.058;2022-11-04T17:05:25;10.70;99.90
17425;DHT22;8830;50.978;5.058;2022-11-04T17:07:55;10.70;99.90
17425;DHT22;8830;50.978;5.058;2022-11-04T17:10:25;10.60;99.90
17425;DHT22;8830;50.978;5.058;2022-11-04T17:12:53;10.60;99.90
17425;DHT22;8830;50.978;5.058;2022-11-04T17:15:23;10.70;99.90
17425;DHT22;8830;50.978;5.058;2022-11-04T17:17:50;10.60;99.90
17425;DHT22;8830;50.978;5.058;2022-11-04T17:20:17;10.80;99.90
17425;DHT22;8830;50.978;5.058;2022-11-04T17:23:13;10.60;99.90
17425;DHT22;8830;50.978;5.058;2022-11-04T17:25:46;10.60;99.90
17425;DHT22;8830;50.978;5.058;2022-11-04T17:28:15;10.60;99.90
17425;DHT22;8830;50.978;5.058;2022-11-04T17:30:43;10.60;99.90
17425;DHT22;8830;50.978;5.058;2022-11-04T17:33:15;10.60;99.90
17425;DHT22;8830;50.978;5.058;2022-11-04T17:35:44;10.60;99.90
17425;DHT22;8830;50.978;5.058;2022-11-04T17:38:13;10.70;99.90
17425;DHT22;8830;50.978;5.058;2022-11-04T17:40:42;10.60;99.90
17425;DHT22;8830;50.978;5.058;2022-11-04T17:43:27;10.50;99.90
17425;DHT22;8830;50.978;5.058;2022-11-04T17:46:24;10.60;99.90
17425;DHT22;8830;50.978;5.058;2022-11-04T17:49:05;10.50;99.90
17425;DHT22;8830;50.978;5.058;2022-11-04T17:51:33;10.50;99.90
17425;DHT22;8830;50.978;5.058;2022-11-04T17:54:00;10.50;99.90
17425;DHT22;8830;50.978;5.058;2022-11-04T17:56:27;10.50;99.90
17425;DHT22;8830;50.978;5.058;2022-11-04T17:58:58;10.50;99.90
17425;DHT22;8830;50.978;5.058;2022-11-04T18:01:27;10.40;99.90
17425;DHT22;8830;50.978;5.058;2022-11-04T18:03:56;10.40;99.90
17425;DHT22;8830;50.978;5.058;2022-11-04T18:06:24;10.40;99.90
17425;DHT22;8830;50.978;5.058;2022-11-04T18:08:52;10.40;99.90
17425;DHT22;8830;50.978;5.058;2022-11-04T18:11:20;10.40;99.90
17425;DHT22;8830;50.978;5.058;2022-11-04T18:14:05;10.50;99.90
17425;DHT22;8830;50.978;5.058;2022-11-04T18:16:34;10.20;99.90
17425;DHT22;8830;50.978;5.058;2022-11-04T18:19:01;10.20;99.90
17425;DHT22;8830;50.978;5.058;2022-11-04T18:21:28;11.30;99.90
17425;DHT22;8830;50.978;5.058;2022-11-04T18:23:57;10.10;99.90
17425;DHT22;8830;50.978;5.058;2022-11-04T18:26:24;10.10;99.90
17425;DHT22;8830;50.978;5.058;2022-11-04T18:28:51;10.10;99.90
17425;DHT22;8830;50.978;5.058;2022-11-04T18:31:22;10.00;99.90
17425;DHT22;8830;50.978;5.058;2022-11-04T18:33:51;10.00;99.90
17425;DHT22;8830;50.978;5.058;2022-11-04T18:36:18;9.90;99.90
17425;DHT22;8830;50.978;5.058;2022-11-04T18:38:46;10.00;99.90
17425;DHT22;8830;50.978;5.058;2022-11-04T18:41:13;9.80;99.90
17425;DHT22;8830;50.978;5.058;2022-11-04T18:43:40;9.80;99.90
17425;DHT22;8830;50.978;5.058;2022-11-04T18:46:09;9.80;99.90
17425;DHT22;8830;50.978;5.058;2022-11-04T18:48:37;9.80;99.90
17425;DHT22;8830;50.978;5.058;2022-11-04T18:51:08;9.70;99.90
17425;DHT22;8830;50.978;5.058;2022-11-04T18:53:37;9.70;99.90
17425;DHT22;8830;50.978;5.058;2022-11-04T18:56:06;9.70;99.90
17425;DHT22;8830;50.978;5.058;2022-11-04T18:58:35;9.50;99.90
17425;DHT22;8830;50.978;5.058;2022-11-04T19:01:06;9.50;99.90
17425;DHT22;8830;50.978;5.058;2022-11-04T19:03:34;9.50;99.90
17425;DHT22;8830;50.978;5.058;2022-11-04T19:06:06;9.50;99.90
17425;DHT22;8830;50.978;5.058;2022-11-04T19:08:34;9.40;99.90
17425;DHT22;8830;50.978;5.058;2022-11-04T19:11:08;9.40;99.90
17425;DHT22;8830;50.978;5.058;2022-11-04T19:13:35;9.30;99.90
17425;DHT22;8830;50.978;5.058;2022-11-04T19:16:04;9.30;99.90
17425;DHT22;8830;50.978;5.058;2022-11-04T19:18:31;9.30;99.90
17425;DHT22;8830;50.978;5.058;2022-11-04T19:21:02;9.20;99.90
17425;DHT22;8830;50.978;5.058;2022-11-04T19:23:31;10.30;99.90
17425;DHT22;8830;50.978;5.058;2022-11-04T19:26:03;9.20;99.90
17425;DHT22;8830;50.978;5.058;2022-11-04T19:28:30;9.10;99.90
17425;DHT22;8830;50.978;5.058;2022-11-04T19:30:58;9.20;99.90
17425;DHT22;8830;50.978;5.058;2022-11-04T19:33:27;9.00;99.90
17425;DHT22;8830;50.978;5.058;2022-11-04T19:35:55;8.30;99.90
17425;DHT22;8830;50.978;5.058;2022-11-04T19:38:22;9.10;99.90
17425;DHT22;8830;50.978;5.058;2022-11-04T19:40:52;8.90;99.90
17425;DHT22;8830;50.978;5.058;2022-11-04T19:43:20;8.90;99.90
17425;DHT22;8830;50.978;5.058;2022-11-04T19:45:47;8.80;99.90
17425;DHT22;8830;50.978;5.058;2022-11-04T19:48:15;8.80;99.90
17425;DHT22;8830;50.978;5.058;2022-11-04T19:50:44;8.80;99.90
17425;DHT22;8830;50.978;5.058;2022-11-04T19:53:12;8.70;99.90
17425;DHT22;8830;50.978;5.058;2022-11-04T19:55:46;8.60;99.90
17425;DHT22;8830;50.978;5.058;2022-11-04T19:58:16;8.60;99.90
17425;DHT22;8830;50.978;5.058;2022-11-04T20:00:44;8.60;99.90
17425;DHT22;8830;50.978;5.058;2022-11-04T20:03:12;8.60;99.90
17425;DHT22;8830;50.978;5.058;2022-11-04T20:05:41;8.80;99.90
17425;DHT22;8830;50.978;5.058;2022-11-04T20:08:10;8.60;99.90
17425;DHT22;8830;50.978;5.058;2022-11-04T20:10:39;8.70;99.90
17425;DHT22;8830;50.978;5.058;2022-11-04T20:13:13;8.80;99.90
17425;DHT22;8830;50.978;5.058;2022-11-04T20:16:11;9.00;99.90
17425;DHT22;8830;50.978;5.058;2022-11-04T20:18:39;8.70;99.90
17425;DHT22;8830;50.978;5.058;2022-11-04T20:21:07;8.70;99.90
17425;DHT22;8830;50.978;5.058;2022-11-04T20:23:34;8.80;99.90
17425;DHT22;8830;50.978;5.058;2022-11-04T20:26:10;8.80;99.90
17425;DHT22;8830;50.978;5.058;2022-11-04T20:28:38;8.80;99.90
17425;DHT22;8830;50.978;5.058;2022-11-04T20:31:15;8.80;99.90
17425;DHT22;8830;50.978;5.058;2022-11-04T20:33:44;8.80;99.90
17425;DHT22;8830;50.978;5.058;2022-11-04T20:36:13;8.80;99.90
17425;DHT22;8830;50.978;5.058;2022-11-04T20:38:41;8.80;99.90
17425;DHT22;8830;50.978;5.058;2022-11-04T20:41:10;8.80;99.90
17425;DHT22;8830;50.978;5.058;2022-11-04T20:43:40;8.90;99.90
17425;DHT22;8830;50.978;5.058;2022-11-04T20:46:11;8.80;99.90
17425;DHT22;8830;50.978;5.058;2022-11-04T20:48:39;8.80;99.90
17425;DHT22;8830;50.978;5.058;2022-11-04T20:51:09;8.70;99.90
17425;DHT22;8830;50.978;5.058;2022-11-04T20:53:37;8.70;99.90
17425;DHT22;8830;50.978;5.058;2022-11-04T20:56:06;8.80;99.90
17425;DHT22;8830;50.978;5.058;2022-11-04T20:58:37;8.70;99.90
17425;DHT22;8830;50.978;5.058;2022-11-04T21:01:06;8.70;99.90
17425;DHT22;8830;50.978;5.058;2022-11-04T21:03:34;8.70;99.90
17425;DHT22;8830;50.978;5.058;2022-11-04T21:06:03;8.70;99.90
17425;DHT22;8830;50.978;5.058;2022-11-04T21:08:32;8.70;99.90
17425;DHT22;8830;50.978;5.058;2022-11-04T21:11:00;8.70;99.90
17425;DHT22;8830;50.978;5.058;2022-11-04T21:13:27;8.80;99.90
17425;DHT22;8830;50.978;5.058;2022-11-04T21:15:56;8.80;99.90
17425;DHT22;8830;50.978;5.058;2022-11-04T21:18:24;8.70;99.90
17425;DHT22;8830;50.978;5.058;2022-11-04T21:20:51;8.80;99.90
17425;DHT22;8830;50.978;5.058;2022-11-04T21:23:23;8.90;99.90
17425;DHT22;8830;50.978;5.058;2022-11-04T21:25:52;8.90;99.90
17425;DHT22;8830;50.978;5.058;2022-11-04T21:28:19;8.80;99.90
17425;DHT22;8830;50.978;5.058;2022-11-04T21:30:49;8.80;99.90
17425;DHT22;8830;50.978;5.058;2022-11-04T21:33:16;8.80;99.90
17425;DHT22;8830;50.978;5.058;2022-11-04T21:35:45;8.70;99.90
17425;DHT22;8830;50.978;5.058;2022-11-04T21:38:14;8.70;99.90
17425;DHT22;8830;50.978;5.058;2022-11-04T21:40:43;8.60;99.90
17425;DHT22;8830;50.978;5.058;2022-11-04T21:43:11;8.60;99.90
17425;DHT22;8830;50.978;5.058;2022-11-04T21:45:40;8.60;99.90
17425;DHT22;8830;50.978;5.058;2022-11-04T21:48:07;8.60;99.90
17425;DHT22;8830;50.978;5.058;2022-11-04T21:50:35;8.60;99.90
17425;DHT22;8830;50.978;5.058;2022-11-04T21:53:02;8.50;99.90
17425;DHT22;8830;50.978;5.058;2022-11-04T21:55:29;8.60;99.90
17425;DHT22;8830;50.978;5.058;2022-11-04T21:57:58;8.60;99.90
17425;DHT22;8830;50.978;5.058;2022-11-04T22:00:25;8.50;99.90
17425;DHT22;8830;50.978;5.058;2022-11-04T22:02:53;8.50;99.90
17425;DHT22;8830;50.978;5.058;2022-11-04T22:05:20;8.40;99.90
17425;DHT22;8830;50.978;5.058;2022-11-04T22:07:47;8.50;99.90
17425;DHT22;8830;50.978;5.058;2022-11-04T22:10:37;8.50;99.90
17425;DHT22;8830;50.978;5.058;2022-11-04T22:13:10;8.50;99.90
17425;DHT22;8830;50.978;5.058;2022-11-04T22:15:37;9.20;99.90